Time;durP1;ratioP1;P1;durP2;ratioP2;P2;SDS_P1;SDS_P2;PMS_P1;PMS_P2;Temp;Humidity;BMP_temperature;BMP_pressure;BME280_temperature;BME280_humidity;BME280_pressure;Samples;Min_cycle;Max_cycle;Signal;HPM_P1;HPM_P2
2021/12/27 00:02:23;;;;;;;47.85;26.95;;;;;;;1.75;100.00;100055.22;5110896;28;20023;-89
2021/12/27 00:04:49;;;;;;;52.30;27.73;;;;;;;1.80;100.00;100060.34;5110465;28;20085;-89
2021/12/27 00:07:15;;;;;;;53.22;27.77;;;;;;;1.80;100.00;100068.22;5107003;27;20035;-89
2021/12/27 00:09:40;;;;;;;50.67;25.92;;;;;;;1.80;100.00;100060.34;5109788;28;20469;-90
2021/12/27 00:12:06;;;;;;;53.88;28.13;;;;;;;1.73;100.00;100046.53;5110864;28;20042;-91
2021/12/27 00:14:31;;;;;;;50.05;26.30;;;;;;;1.64;100.00;100033.69;5111166;28;20023;-90
2021/12/27 00:16:57;;;;;;;50.83;27.23;;;;;;;1.70;100.00;100046.59;5107978;28;20027;-90
2021/12/27 00:19:22;;;;;;;49.15;26.10;;;;;;;1.66;100.00;100037.09;5106555;28;20420;-91
2021/12/27 00:21:47;;;;;;;50.13;26.20;;;;;;;1.71;100.00;100047.47;5090527;28;20016;-90
2021/12/27 00:24:12;;;;;;;48.60;26.48;;;;;;;1.83;100.00;100057.63;5099337;28;20075;-89
2021/12/27 00:26:38;;;;;;;53.17;27.67;;;;;;;1.83;100.00;100059.38;5100051;28;20036;-89
2021/12/27 00:29:03;;;;;;;57.00;28.60;;;;;;;1.84;100.00;100054.13;5091200;28;20047;-89
2021/12/27 00:31:28;;;;;;;53.85;26.98;;;;;;;1.77;100.00;100047.31;5092813;28;20118;-88
2021/12/27 00:33:54;;;;;;;51.80;27.90;;;;;;;1.83;100.00;100052.38;5110866;28;20046;-88
2021/12/27 00:36:19;;;;;;;48.45;26.73;;;;;;;1.83;100.00;100044.50;5099099;28;20153;-87
2021/12/27 00:38:45;;;;;;;51.30;27.48;;;;;;;1.75;100.00;100026.34;5090151;28;20480;-87
2021/12/27 00:41:10;;;;;;;54.25;28.35;;;;;;;1.72;100.00;100020.34;5108657;27;20472;-87
2021/12/27 00:43:35;;;;;;;55.13;27.88;;;;;;;1.75;100.00;100020.25;5110683;28;20035;-87
2021/12/27 00:46:00;;;;;;;50.28;26.83;;;;;;;1.85;100.00;100034.84;5099383;28;20481;-88
2021/12/27 00:48:26;;;;;;;51.30;26.27;;;;;;;1.84;100.00;100030.50;5088359;28;20266;-88
2021/12/27 00:50:51;;;;;;;47.72;27.27;;;;;;;1.78;100.00;100021.94;5089984;28;20393;-88
2021/12/27 00:53:16;;;;;;;54.25;27.08;;;;;;;1.82;100.00;100021.81;5105812;28;20030;-89
2021/12/27 00:55:41;;;;;;;49.15;26.13;;;;;;;1.85;100.00;100019.09;5107643;28;20019;-89
2021/12/27 00:58:07;;;;;;;54.53;27.65;;;;;;;1.86;100.00;100012.94;5108410;28;20027;-89
2021/12/27 01:00:33;;;;;;;53.88;27.45;;;;;;;1.86;100.00;100023.44;5108406;28;20035;-90
2021/12/27 01:02:58;;;;;;;51.80;26.70;;;;;;;1.87;100.00;100014.66;5108551;28;20019;-89
2021/12/27 01:05:25;;;;;;;49.55;27.15;;;;;;;1.84;100.00;100016.50;5106205;28;20050;-89
2021/12/27 01:07:51;;;;;;;55.78;28.33;;;;;;;1.87;100.00;100009.41;5107414;28;20085;-89
2021/12/27 01:17:45;;;;;;;53.95;27.85;;;;;;;1.75;100.00;99994.88;5109195;28;20085;-90
2021/12/27 01:20:13;;;;;;;52.20;27.67;;;;;;;1.83;100.00;100010.41;5095894;28;20027;-90
2021/12/27 01:22:39;;;;;;;56.15;29.05;;;;;;;1.64;100.00;99969.88;5107943;28;20528;-89
2021/12/27 01:25:06;;;;;;;53.33;27.40;;;;;;;1.92;100.00;100015.41;5107139;28;20107;-89
2021/12/27 01:27:32;;;;;;;57.08;28.75;;;;;;;1.62;100.00;99962.03;5108520;28;20173;-89
2021/12/27 01:29:57;;;;;;;50.95;26.27;;;;;;;1.79;100.00;99985.16;5090919;28;20047;-90
2021/12/27 01:32:25;;;;;;;55.28;27.33;;;;;;;1.94;100.00;100004.84;5088176;28;20089;-89
2021/12/27 01:34:50;;;;;;;51.63;26.90;;;;;;;1.96;100.00;100005.66;5089404;28;20452;-89
2021/12/27 01:37:18;;;;;;;53.00;27.23;;;;;;;1.95;100.00;100006.56;5105699;28;20088;-89
2021/12/27 01:39:43;;;;;;;49.38;27.95;;;;;;;1.97;100.00;100005.63;5108654;28;20027;-90
2021/12/27 01:42:08;;;;;;;52.63;25.08;;;;;;;1.98;100.00;100002.09;5091635;28;20094;-90
2021/12/27 01:44:34;;;;;;;56.15;28.33;;;;;;;1.94;100.00;99995.22;5089516;28;20027;-90
2021/12/27 01:47:00;;;;;;;59.13;27.73;;;;;;;1.93;100.00;99985.63;5105111;28;20260;-90
2021/12/27 01:49:25;;;;;;;54.25;28.55;;;;;;;2.00;100.00;99994.16;5109422;28;20031;-89
2021/12/27 01:51:50;;;;;;;54.05;26.75;;;;;;;1.86;100.00;99962.22;5109870;28;20027;-90
2021/12/27 01:54:16;;;;;;;56.30;28.38;;;;;;;1.98;100.00;99993.38;5107947;28;20027;-90
2021/12/27 01:56:41;;;;;;;51.72;27.65;;;;;;;1.96;100.00;99985.50;5092507;28;20469;-90
2021/12/27 01:59:06;;;;;;;50.47;26.88;;;;;;;1.97;100.00;99984.63;5088272;28;20488;-90
2021/12/27 02:01:32;;;;;;;55.60;27.20;;;;;;;1.92;100.00;99981.28;5089761;28;20058;-89
2021/12/27 02:03:58;;;;;;;54.03;27.13;;;;;;;1.91;100.00;99981.31;5089571;28;20073;-90
2021/12/27 02:06:25;;;;;;;50.40;25.90;;;;;;;1.99;100.00;99985.44;5109734;28;20034;-90
2021/12/27 02:08:51;;;;;;;56.53;27.40;;;;;;;1.93;100.00;99972.50;5120781;28;20034;-91
2021/12/27 02:11:18;;;;;;;53.03;27.80;;;;;;;1.98;100.00;99977.63;5115510;28;20042;-90
2021/12/27 02:13:45;;;;;;;57.60;28.27;;;;;;;2.02;100.00;99978.38;5115717;28;20028;-90
2021/12/27 02:16:12;;;;;;;59.03;27.85;;;;;;;1.98;100.00;99973.22;5106212;28;20058;-89
2021/12/27 02:18:39;;;;;;;57.58;28.15;;;;;;;1.98;100.00;99972.38;5093304;28;20062;-91
2021/12/27 02:21:05;;;;;;;56.15;28.95;;;;;;;2.03;100.00;99972.22;5089188;28;20020;-91
2021/12/27 02:23:30;;;;;;;57.65;28.52;;;;;;;2.09;100.00;99985.16;5089477;28;20031;-90
2021/12/27 02:25:55;;;;;;;57.70;27.92;;;;;;;2.10;100.00;99977.25;5098881;28;20042;-90
2021/12/27 02:28:21;;;;;;;57.13;29.33;;;;;;;2.12;100.00;99982.44;5107055;28;20096;-90
2021/12/27 02:30:49;;;;;;;56.67;27.27;;;;;;;2.10;100.00;99981.66;5109076;28;20107;-91
2021/12/27 02:33:14;;;;;;;56.67;27.27;;;;;;;2.12;100.00;99977.19;5108544;28;20053;-90
2021/12/27 02:35:44;;;;;;;53.97;26.10;;;;;;;2.12;100.00;99978.06;5100267;28;20560;-90
2021/12/27 02:38:18;;;;;;;57.00;28.38;;;;;;;2.15;100.00;99979.75;5100870;28;20036;-90
2021/12/27 02:40:44;;;;;;;58.17;27.55;;;;;;;2.09;100.00;99966.78;5107998;28;20024;-90
2021/12/27 02:43:12;;;;;;;58.35;27.08;;;;;;;2.17;100.00;99978.78;5108467;28;20362;-90
2021/12/27 02:45:43;;;;;;;56.50;27.60;;;;;;;2.16;100.00;99974.44;5100383;28;20047;-90
2021/12/27 02:48:11;;;;;;;55.70;27.58;;;;;;;2.21;100.00;99982.16;5086992;28;20066;-91
2021/12/27 02:50:37;;;;;;;59.08;27.63;;;;;;;2.20;100.00;99978.69;5088953;28;20399;-90
2021/12/27 02:53:04;;;;;;;56.22;26.38;;;;;;;2.14;100.00;99964.91;5099031;28;20032;-90
2021/12/27 02:55:30;;;;;;;55.75;27.90;;;;;;;2.22;100.00;99979.50;5106197;28;20038;-90
2021/12/27 02:57:56;;;;;;;56.63;28.00;;;;;;;2.24;100.00;99966.31;5108883;28;20027;-90
2021/12/27 03:00:27;;;;;;;58.10;28.35;;;;;;;2.25;100.00;99963.63;5108378;28;20570;-90
2021/12/27 03:02:53;;;;;;;50.33;25.67;;;;;;;2.24;100.00;99963.69;5109320;28;20027;-90
2021/12/27 03:05:20;;;;;;;58.08;27.73;;;;;;;2.26;100.00;99964.53;5106036;28;20076;-90
2021/12/27 03:07:47;;;;;;;56.65;26.58;;;;;;;2.28;100.00;99967.94;5108865;28;20027;-90
2021/12/27 03:10:14;;;;;;;55.13;27.02;;;;;;;2.27;100.00;99974.13;5110644;28;20032;-90
2021/12/27 03:12:40;;;;;;;55.03;27.65;;;;;;;2.26;100.00;99956.66;5113152;28;20023;-91
2021/12/27 03:15:08;;;;;;;54.20;27.58;;;;;;;2.29;100.00;99956.53;5109968;28;20027;-89
2021/12/27 03:17:38;;;;;;;51.55;27.08;;;;;;;2.27;100.00;99950.47;5112913;28;20038;-90
2021/12/27 03:20:06;;;;;;;55.22;27.40;;;;;;;2.32;100.00;99950.34;5112603;28;20023;-90
2021/12/27 03:22:32;;;;;;;55.33;26.83;;;;;;;2.32;100.00;99956.44;5112750;27;20024;-90
2021/12/27 03:24:57;;;;;;;53.03;26.65;;;;;;;2.30;100.00;99950.41;5107985;28;20426;-90
2021/12/27 03:27:22;;;;;;;51.15;27.23;;;;;;;2.29;100.00;99947.81;5108684;28;20527;-89
2021/12/27 03:29:48;;;;;;;53.40;26.60;;;;;;;2.28;100.00;99944.31;5113036;28;20519;-89
2021/12/27 03:32:14;;;;;;;55.80;27.27;;;;;;;2.36;100.00;99954.59;5112116;28;20019;-89
2021/12/27 03:34:52;;;;;;;55.33;27.25;;;;;;;2.31;100.00;99941.59;5109756;28;20523;-89
2021/12/27 03:37:18;;;;;;;58.97;27.27;;;;;;;2.34;100.00;99945.88;5092303;28;20508;-89
2021/12/27 03:39:43;;;;;;;56.42;27.77;;;;;;;2.40;100.00;99953.59;5110060;28;20035;-89
2021/12/27 03:42:08;;;;;;;52.05;26.55;;;;;;;2.36;100.00;99944.09;5111471;28;20039;-90
2021/12/27 03:44:33;;;;;;;51.35;27.42;;;;;;;2.41;100.00;99950.03;5112570;28;20027;-90
2021/12/27 03:46:58;;;;;;;52.45;27.02;;;;;;;2.41;100.00;99940.41;5097650;28;20044;-89
2021/12/27 03:49:24;;;;;;;56.85;26.83;;;;;;;2.44;100.00;99942.94;5107576;28;20491;-90
2021/12/27 03:51:49;;;;;;;56.25;27.48;;;;;;;2.46;100.00;99943.72;5111684;28;20058;-90
2021/12/27 03:54:14;;;;;;;61.65;27.88;;;;;;;2.46;100.00;99929.72;5109767;28;20062;-90
2021/12/27 03:56:40;;;;;;;57.97;27.48;;;;;;;2.38;100.00;99911.63;5099253;28;20031;-90
2021/12/27 03:59:21;;;;;;;56.85;26.65;;;;;;;2.48;100.00;99928.78;5107228;28;20043;-90
2021/12/27 04:01:46;;;;;;;57.58;27.45;;;;;;;2.41;100.00;99901.00;5111799;28;20538;-89
2021/12/27 04:04:12;;;;;;;54.60;27.10;;;;;;;2.49;100.00;99914.75;5109680;28;20114;-90
2021/12/27 04:06:37;;;;;;;51.90;26.92;;;;;;;2.51;100.00;99912.09;5108847;28;20055;-91
2021/12/27 04:09:03;;;;;;;54.58;26.80;;;;;;;2.49;100.00;99912.13;5109202;28;20380;-89
2021/12/27 04:11:28;;;;;;;55.20;27.55;;;;;;;2.50;100.00;99907.72;5111171;28;20040;-90
2021/12/27 04:13:55;;;;;;;49.90;24.98;;;;;;;2.49;100.00;99912.13;5111378;28;20019;-90
2021/12/27 04:16:21;;;;;;;57.28;26.30;;;;;;;2.46;100.00;99893.81;5108617;28;20384;-89
2021/12/27 04:18:46;;;;;;;54.40;27.42;;;;;;;2.53;100.00;99907.63;5111190;28;20028;-90
2021/12/27 04:21:11;;;;;;;58.15;28.35;;;;;;;2.55;100.00;99902.31;5109413;28;20011;-90
2021/12/27 04:23:36;;;;;;;51.90;26.98;;;;;;;2.57;100.00;99897.88;5110450;28;20031;-90
2021/12/27 04:26:03;;;;;;;53.40;26.23;;;;;;;2.52;100.00;99894.56;5106971;28;20030;-89
2021/12/27 04:28:28;;;;;;;53.03;27.70;;;;;;;2.58;100.00;99899.59;5110968;28;20118;-90
2021/12/27 04:30:53;;;;;;;52.78;26.10;;;;;;;2.58;100.00;99889.06;5110873;28;20115;-90
2021/12/27 04:33:19;;;;;;;58.88;28.75;;;;;;;2.60;100.00;99887.28;5109171;28;20023;-89
2021/12/27 04:35:44;;;;;;;54.08;26.65;;;;;;;2.62;100.00;99888.06;5107810;28;20039;-90
2021/12/27 04:38:09;;;;;;;51.92;25.70;;;;;;;2.59;100.00;99877.66;5108550;28;20027;-89
2021/12/27 04:40:40;;;;;;;51.90;25.83;;;;;;;2.62;100.00;99883.66;5111229;28;20031;-91
2021/12/27 04:43:09;;;;;;;54.47;26.08;;;;;;;2.63;100.00;99879.28;5109270;28;20032;-90
2021/12/27 04:45:36;;;;;;;54.97;26.65;;;;;;;2.61;100.00;99875.84;5108277;28;20078;-91
2021/12/27 04:48:01;;;;;;;53.08;25.50;;;;;;;2.64;100.00;99873.97;5109703;28;20028;-91
2021/12/27 04:50:28;;;;;;;54.15;26.65;;;;;;;2.58;100.00;99854.94;5110664;28;20023;-91
2021/12/27 04:52:54;;;;;;;52.05;25.45;;;;;;;2.64;100.00;99873.97;5110372;28;20051;-91
2021/12/27 04:55:24;;;;;;;52.20;24.77;;;;;;;2.65;100.00;99870.44;5108011;27;20055;-90
2021/12/27 04:57:49;;;;;;;49.70;25.02;;;;;;;2.64;100.00;99865.25;5108899;27;20075;-90
2021/12/27 05:00:15;;;;;;;50.75;26.73;;;;;;;2.69;100.00;99874.69;5110279;28;20055;-91
2021/12/27 05:02:40;;;;;;;59.03;26.83;;;;;;;2.65;100.00;99867.81;5110641;28;20035;-91
2021/12/27 05:05:06;;;;;;;50.72;25.17;;;;;;;2.70;100.00;99880.78;5108912;28;20084;-89
2021/12/27 05:07:31;;;;;;;54.70;25.58;;;;;;;2.68;100.00;99869.50;5108276;28;20358;-91
2021/12/27 05:09:57;;;;;;;54.25;27.23;;;;;;;2.73;100.00;99870.19;5108923;28;20023;-91
2021/12/27 05:12:22;;;;;;;53.63;26.33;;;;;;;2.75;100.00;99870.97;5110260;28;20024;-92
2021/12/27 05:14:47;;;;;;;52.15;26.92;;;;;;;2.77;100.00;99870.94;5109139;28;20024;-91
2021/12/27 05:17:13;;;;;;;52.08;24.77;;;;;;;2.77;100.00;99877.06;5106002;28;20027;-90
2021/12/27 05:19:38;;;;;;;50.22;24.15;;;;;;;2.74;100.00;99874.50;5109814;28;20032;-89
2021/12/27 05:22:03;;;;;;;47.92;25.90;;;;;;;2.70;100.00;99871.13;5109622;28;20381;-91
2021/12/27 05:24:29;;;;;;;49.92;24.15;;;;;;;2.71;100.00;99862.31;5109604;28;20083;-91
2021/12/27 05:26:54;;;;;;;49.20;25.20;;;;;;;2.78;100.00;99870.88;5107826;28;20023;-90
2021/12/27 05:29:20;;;;;;;48.65;24.92;;;;;;;2.79;100.00;99867.31;5114846;27;20027;-90
2021/12/27 05:31:45;;;;;;;52.40;25.48;;;;;;;2.81;100.00;99864.66;5109988;28;20039;-90
2021/12/27 05:34:11;;;;;;;50.78;25.10;;;;;;;2.79;100.00;99854.19;5109733;27;20015;-90
2021/12/27 05:36:37;;;;;;;49.83;25.23;;;;;;;2.82;100.00;99861.13;5106092;28;20031;-90
2021/12/27 05:39:03;;;;;;;53.10;26.15;;;;;;;2.85;100.00;99859.25;5110162;28;20024;-90
2021/12/27 05:41:28;;;;;;;49.65;25.38;;;;;;;2.86;100.00;99855.69;5111162;28;20388;-91
2021/12/27 05:43:54;;;;;;;52.45;25.83;;;;;;;2.86;100.00;99855.69;5110571;28;20030;-91
2021/12/27 05:46:19;;;;;;;49.70;25.10;;;;;;;2.88;100.00;99855.63;5098192;28;20044;-90
2021/12/27 05:48:44;;;;;;;51.05;25.52;;;;;;;2.89;100.00;99857.38;5089494;28;20063;-90
2021/12/27 05:51:10;;;;;;;50.78;24.35;;;;;;;2.86;100.00;99850.44;5091488;27;20412;-91
2021/12/27 05:53:35;;;;;;;50.28;24.55;;;;;;;2.90;100.00;99853.81;5109812;28;20123;-90
2021/12/27 05:56:00;;;;;;;48.97;24.65;;;;;;;2.89;100.00;99849.50;5107448;28;20024;-90
2021/12/27 05:58:26;;;;;;;53.03;25.00;;;;;;;2.90;100.00;99845.94;5109555;28;20106;-89
2021/12/27 06:00:51;;;;;;;48.35;24.02;;;;;;;2.89;100.00;99844.22;5107571;28;20047;-90
2021/12/27 06:03:17;;;;;;;49.45;24.33;;;;;;;2.90;100.00;99846.78;5107735;28;20027;-90
2021/12/27 06:05:42;;;;;;;43.80;23.45;;;;;;;2.95;100.00;99858.00;5106364;28;20024;-90
2021/12/27 06:08:08;;;;;;;46.97;24.92;;;;;;;2.96;100.00;99857.06;5109444;28;20034;-90
2021/12/27 06:10:33;;;;;;;46.22;23.92;;;;;;;2.94;100.00;99848.41;5109705;28;20028;-90
2021/12/27 06:12:58;;;;;;;49.22;24.90;;;;;;;2.92;100.00;99839.69;5109589;28;20019;-91
2021/12/27 06:15:24;;;;;;;46.63;23.77;;;;;;;2.97;100.00;99847.44;5106964;28;20031;-90
2021/12/27 06:17:49;;;;;;;47.80;24.05;;;;;;;3.03;100.00;99849.00;5109475;28;20111;-90
2021/12/27 06:20:16;;;;;;;48.08;23.90;;;;;;;2.99;100.00;99835.09;5107522;28;20058;-90
2021/12/27 06:22:50;;;;;;;48.38;23.83;;;;;;;3.08;100.00;99852.31;5109226;28;20072;-90
2021/12/27 06:25:15;;;;;;;51.03;25.15;;;;;;;3.02;100.00;99839.41;5106229;28;20446;-90
2021/12/27 06:27:41;;;;;;;49.88;24.25;;;;;;;3.00;100.00;99837.66;5090310;28;20028;-90
2021/12/27 06:30:08;;;;;;;47.40;23.75;;;;;;;3.12;100.00;99856.53;5108554;28;20032;-90
2021/12/27 06:32:35;;;;;;;45.88;22.70;;;;;;;3.09;100.00;99849.59;5108755;28;20511;-90
2021/12/27 06:35:01;;;;;;;46.97;22.92;;;;;;;3.12;100.00;99853.91;5104962;28;20047;-89
2021/12/27 06:37:26;;;;;;;44.42;22.85;;;;;;;3.08;100.00;99844.41;5108861;28;20551;-90
2021/12/27 06:39:51;;;;;;;44.47;22.02;;;;;;;3.13;100.00;99847.72;5109078;28;20028;-89
2021/12/27 06:42:17;;;;;;;46.35;23.70;;;;;;;3.17;100.00;99851.97;5109030;28;20391;-90
2021/12/27 06:44:42;;;;;;;45.42;22.63;;;;;;;3.18;100.00;99851.06;5106409;28;20035;-90
2021/12/27 06:47:07;;;;;;;46.63;22.45;;;;;;;3.04;100.00;99817.38;5113905;28;20051;-91
2021/12/27 06:49:33;;;;;;;43.38;21.60;;;;;;;3.15;100.00;99828.38;5112435;28;20032;-91
2021/12/27 06:51:59;;;;;;;48.30;22.88;;;;;;;3.22;100.00;99829.00;5112834;27;20031;-90
2021/12/27 06:54:24;;;;;;;45.13;23.00;;;;;;;3.24;100.00;99821.91;5113580;28;20031;-91
2021/12/27 06:56:50;;;;;;;47.38;23.13;;;;;;;3.28;100.00;99826.16;5105348;28;20084;-90
2021/12/27 06:59:15;;;;;;;43.10;23.48;;;;;;;3.24;100.00;99814.03;5093136;28;20024;-89
2021/12/27 07:01:40;;;;;;;44.75;22.52;;;;;;;3.23;100.00;99812.31;5106940;28;20034;-91
2021/12/27 07:04:06;;;;;;;41.90;21.23;;;;;;;3.20;100.00;99808.00;5112812;28;20469;-90
2021/12/27 07:06:31;;;;;;;44.17;21.73;;;;;;;3.23;100.00;99818.44;5111326;28;20028;-90
2021/12/27 07:08:57;;;;;;;48.20;21.98;;;;;;;3.26;100.00;99814.84;5113081;28;20028;-91
2021/12/27 07:11:22;;;;;;;45.63;22.20;;;;;;;3.26;100.00;99809.59;5113169;28;20433;-90
2021/12/27 07:13:47;;;;;;;42.75;22.40;;;;;;;3.25;100.00;99811.31;5113418;28;20023;-91
2021/12/27 07:16:13;;;;;;;45.22;22.15;;;;;;;3.23;100.00;99815.81;5099488;28;20032;-89
2021/12/27 07:18:38;;;;;;;42.20;22.50;;;;;;;3.22;100.00;99816.72;5102307;28;20047;-90
2021/12/27 07:21:03;;;;;;;44.97;21.63;;;;;;;3.22;100.00;99818.50;5114302;28;20019;-91
2021/12/27 07:23:28;;;;;;;43.63;21.40;;;;;;;3.19;100.00;99805.47;5115080;28;20357;-91
2021/12/27 07:25:54;;;;;;;41.28;20.55;;;;;;;3.19;100.00;99803.69;5101124;28;20084;-91
2021/12/27 07:28:19;;;;;;;44.45;21.65;;;;;;;3.15;100.00;99809.13;5091828;28;20043;-91
2021/12/27 07:30:45;;;;;;;46.05;22.23;;;;;;;3.14;100.00;99802.16;5091984;28;20031;-91
2021/12/27 07:33:10;;;;;;;44.78;22.63;;;;;;;3.11;100.00;99802.25;5093620;27;20043;-89
2021/12/27 07:35:36;;;;;;;46.25;22.45;;;;;;;3.06;100.00;99798.94;5110017;28;20035;-90
2021/12/27 07:38:02;;;;;;;44.42;21.83;;;;;;;2.95;100.00;99796.69;5112108;28;20031;-91
2021/12/27 07:40:28;;;;;;;44.05;21.13;;;;;;;2.95;100.00;99794.91;5111794;28;20436;-90
2021/12/27 07:42:53;;;;;;;46.00;21.58;;;;;;;2.86;100.00;99797.88;5110621;28;20472;-91
2021/12/27 07:45:19;;;;;;;43.63;20.80;;;;;;;2.80;100.00;99798.13;5104393;28;20051;-90
2021/12/27 07:47:44;;;;;;;42.03;20.67;;;;;;;2.76;100.00;99807.03;5098207;28;20024;-89
2021/12/27 07:50:10;;;;;;;42.30;20.50;;;;;;;2.70;100.00;99808.06;5108712;27;20062;-90
2021/12/27 07:52:35;;;;;;;43.08;20.83;;;;;;;2.68;100.00;99802.03;5097513;28;20045;-90
2021/12/27 07:55:01;;;;;;;47.28;22.25;;;;;;;2.63;100.00;99790.78;5099065;28;20087;-90
2021/12/27 07:57:26;;;;;;;47.42;21.65;;;;;;;2.65;100.00;99801.28;5101127;28;20061;-89
2021/12/27 07:59:51;;;;;;;46.58;22.30;;;;;;;2.66;100.00;99802.97;5091514;28;20024;-90
2021/12/27 08:02:17;;;;;;;48.55;21.98;;;;;;;2.65;100.00;99803.91;5090527;28;20380;-88
2021/12/27 08:04:43;;;;;;;44.05;21.67;;;;;;;2.65;100.00;99803.91;5091501;28;20588;-82
2021/12/27 08:07:09;;;;;;;46.05;21.90;;;;;;;2.59;100.00;99804.09;5111031;28;20023;-91
2021/12/27 08:09:34;;;;;;;47.58;21.70;;;;;;;2.53;100.00;99792.03;5114489;28;20057;-93
2021/12/27 08:12:00;;;;;;;48.38;22.48;;;;;;;2.53;100.00;99807.81;5113506;28;20388;-92
2021/12/27 08:14:26;;;;;;;47.25;21.95;;;;;;;2.57;100.00;99814.66;5112055;28;20035;-93
2021/12/27 08:16:51;;;;;;;51.58;23.52;;;;;;;2.60;100.00;99819.81;5091695;28;20035;-90
2021/12/27 08:19:16;;;;;;;51.65;24.25;;;;;;;2.56;100.00;99798.97;5091062;28;20062;-94
2021/12/27 08:21:41;;;;;;;58.05;24.33;;;;;;;2.70;100.00;99807.22;5105432;28;20032;-94
2021/12/27 08:24:07;;;;;;;54.42;25.05;;;;;;;2.75;100.00;99815.78;5114164;28;20028;-94
2021/12/27 08:26:33;;;;;;;58.95;25.45;;;;;;;2.83;100.00;99818.16;5111514;28;20030;-92
2021/12/27 08:29:01;;;;;;;51.17;24.67;;;;;;;2.78;100.00;99799.94;5114151;28;20027;-93
2021/12/27 08:31:26;;;;;;;53.00;24.50;;;;;;;2.91;100.00;99811.72;5112949;28;20033;-93
2021/12/27 08:33:52;;;;;;;58.13;24.85;;;;;;;2.98;100.00;99807.97;5113441;28;20458;-93
2021/12/27 08:36:17;;;;;;;55.10;25.63;;;;;;;2.99;100.00;99800.91;5095578;28;20036;-91
2021/12/27 08:38:45;;;;;;;51.22;24.20;;;;;;;2.97;100.00;99776.47;5100503;28;20068;-91
2021/12/27 08:41:10;;;;;;;51.42;23.80;;;;;;;3.05;100.00;99797.19;5112011;28;20023;-92
2021/12/27 08:43:36;;;;;;;51.25;23.60;;;;;;;2.94;100.00;99779.22;5111645;28;20023;-91
2021/12/27 08:46:01;;;;;;;50.80;24.63;;;;;;;3.04;100.00;99795.50;5110894;28;20043;-91
2021/12/27 08:48:27;;;;;;;45.40;22.38;;;;;;;3.07;100.00;99785.72;5105840;28;20059;-86
2021/12/27 08:50:52;;;;;;;48.00;22.90;;;;;;;3.02;100.00;99784.19;5106149;28;20111;-87
2021/12/27 08:53:18;;;;;;;45.47;22.13;;;;;;;3.03;100.00;99780.63;5110121;28;20019;-84
2021/12/27 08:55:43;;;;;;;44.05;20.77;;;;;;;2.99;100.00;99764.97;5095968;28;20492;-88
2021/12/27 08:58:08;;;;;;;46.90;22.48;;;;;;;3.03;100.00;99763.09;5104142;28;20055;-88
2021/12/27 09:00:34;;;;;;;44.50;21.75;;;;;;;3.04;100.00;99764.81;5108306;28;20029;-83
2021/12/27 09:02:59;;;;;;;50.67;23.02;;;;;;;3.08;100.00;99760.28;5109176;28;20023;-88
2021/12/27 09:05:25;;;;;;;47.13;21.92;;;;;;;2.99;100.00;99757.09;5099222;28;20020;-88
2021/12/27 09:07:50;;;;;;;44.15;21.77;;;;;;;3.09;100.00;99775.16;5107937;28;20031;-88
2021/12/27 09:10:16;;;;;;;42.30;21.45;;;;;;;3.06;100.00;99772.66;5109740;28;20030;-89
2021/12/27 09:12:42;;;;;;;41.80;21.33;;;;;;;2.94;100.00;99752.94;5109965;28;20056;-89
2021/12/27 09:15:09;;;;;;;43.40;21.92;;;;;;;3.12;100.00;99780.28;5101056;28;20082;-89
2021/12/27 09:17:34;;;;;;;42.65;22.35;;;;;;;3.16;100.00;99774.84;5109212;28;20050;-88
2021/12/27 09:20:00;;;;;;;45.10;21.95;;;;;;;3.18;100.00;99775.69;5111184;28;20488;-87
2021/12/27 09:22:25;;;;;;;43.78;22.17;;;;;;;3.22;100.00;99779.91;5109880;28;20020;-86
2021/12/27 09:24:50;;;;;;;47.28;22.35;;;;;;;3.23;100.00;99764.97;5107180;28;20027;-86
2021/12/27 09:27:17;;;;;;;39.75;21.33;;;;;;;3.39;100.00;99788.94;5108734;28;20072;-87
2021/12/27 09:29:43;;;;;;;41.95;20.98;;;;;;;3.43;100.00;99783.50;5109919;28;20212;-87
2021/12/27 09:32:10;;;;;;;38.90;20.70;;;;;;;3.47;100.00;99776.34;5107510;28;20016;-87
2021/12/27 09:34:36;;;;;;;34.58;19.73;;;;;;;3.43;100.00;99756.34;5107940;28;20022;-87
2021/12/27 09:37:01;;;;;;;33.03;18.27;;;;;;;3.55;100.00;99762.88;5097830;28;20103;-86
2021/12/27 09:39:27;;;;;;;34.38;18.15;;;;;;;3.62;100.00;99767.84;5101912;28;20183;-86
2021/12/27 09:41:52;;;;;;;34.55;18.25;;;;;;;3.61;100.00;99760.00;5104879;28;20540;-94
2021/12/27 09:44:17;;;;;;;32.63;17.30;;;;;;;3.71;100.00;99764.81;5111075;28;20033;-91
2021/12/27 09:46:43;;;;;;;31.90;17.55;;;;;;;3.72;100.00;99755.16;5105765;28;20078;-92
2021/12/27 09:49:13;;;;;;;29.52;16.55;;;;;;;3.79;100.00;99748.72;5105086;28;20076;-91
2021/12/27 09:51:41;;;;;;;33.03;17.15;;;;;;;3.85;100.00;99742.38;5109492;28;20051;-91
2021/12/27 09:54:07;;;;;;;28.77;16.52;;;;;;;3.98;100.00;99749.72;5108319;28;20035;-88
2021/12/27 09:56:33;;;;;;;29.98;16.70;;;;;;;4.14;100.00;99754.31;5112958;28;20023;-96
2021/12/27 09:58:58;;;;;;;28.88;15.98;;;;;;;4.23;100.00;99756.59;5117189;28;20024;-96
2021/12/27 10:01:23;;;;;;;28.17;15.60;;;;;;;4.25;100.00;99752.09;5110413;28;20024;-96
2021/12/27 10:03:53;;;;;;;25.45;15.35;;;;;;;4.33;100.00;99763.16;5121209;28;20060;-96
2021/12/27 10:06:20;;;;;;;24.13;14.65;;;;;;;4.35;100.00;99744.69;5123912;28;20408;-96
2021/12/27 10:08:47;;;;;;;26.15;15.15;;;;;;;4.50;100.00;99741.38;5124130;28;20051;-96
2021/12/27 10:11:20;;;;;;;26.08;15.75;;;;;;;4.67;100.00;99728.28;5120820;28;20019;-96
2021/12/27 10:14:08;;;;;;;21.98;13.48;;;;;;;4.79;100.00;99711.09;5126610;28;20027;-96
2021/12/27 10:16:37;;;;;;;19.38;13.25;;;;;;;4.71;100.00;99705.31;5126924;28;20099;-96
2021/12/27 10:19:07;;;;;;;18.88;12.00;;;;;;;4.64;100.00;99717.03;5130354;28;20028;-96
2021/12/27 10:21:33;;;;;;;20.95;12.40;;;;;;;4.61;100.00;99714.56;5126768;28;20024;-96
2021/12/27 10:24:06;;;;;;;20.05;12.93;;;;;;;4.77;100.00;99722.63;5126317;28;20084;-96
2021/12/27 10:26:33;;;;;;;21.10;13.77;;;;;;;5.05;100.00;99728.34;5125292;28;20085;-96
2021/12/27 10:29:30;;;;;;;18.48;13.27;;;;;;;5.23;100.00;99729.31;5124001;28;20296;-96
2021/12/27 10:32:10;;;;;;;19.58;12.00;;;;;;;5.21;100.00;99717.94;5118003;28;20518;-96
2021/12/27 10:34:47;;;;;;;18.23;12.43;;;;;;;5.37;100.00;99721.59;5119796;28;20164;-96
2021/12/27 10:37:17;;;;;;;20.92;12.85;;;;;;;5.35;100.00;99723.44;5114366;28;20032;-96
2021/12/27 10:39:51;;;;;;;18.30;12.25;;;;;;;5.48;100.00;99721.09;5122890;28;20024;-96
2021/12/27 10:42:39;;;;;;;18.30;12.30;;;;;;;5.49;100.00;99714.88;5132206;28;20058;-96
2021/12/27 10:45:11;;;;;;;19.00;12.23;;;;;;;5.62;100.00;99728.31;5124221;28;20039;-96
2021/12/27 10:47:43;;;;;;;18.40;11.70;;;;;;;5.73;100.00;99715.47;5107091;28;20096;-96
2021/12/27 10:50:17;;;;;;;20.50;12.48;;;;;;;5.86;100.00;99710.44;5109817;28;20052;-96
2021/12/27 10:53:00;;;;;;;17.25;11.63;;;;;;;5.87;100.00;99697.16;5120985;28;20031;-96
2021/12/27 10:55:29;;;;;;;19.73;12.52;;;;;;;5.89;100.00;99704.97;5119075;28;20024;-96
2021/12/27 10:58:13;;;;;;;16.75;11.15;;;;;;;5.87;100.00;99704.22;5122167;28;20028;-96
2021/12/27 11:00:39;;;;;;;15.85;11.35;;;;;;;5.89;100.00;99708.47;5112984;28;20127;-96
2021/12/27 11:03:05;;;;;;;16.67;11.50;;;;;;;5.79;100.00;99707.22;5130230;28;20010;-96
2021/12/27 11:05:33;;;;;;;17.67;11.77;;;;;;;5.67;100.00;99694.63;5137316;28;20023;-96
2021/12/27 11:08:02;;;;;;;16.60;11.75;;;;;;;5.61;100.00;99690.53;5215770;22;20125;-90
2021/12/27 11:10:31;;;;;;;16.85;11.63;;;;;;;5.75;100.00;99703.03;5027564;28;20478;-90
2021/12/27 11:12:59;;;;;;;18.17;12.00;;;;;;;5.79;100.00;99696.69;5022173;28;20087;-90
2021/12/27 11:15:27;;;;;;;16.75;11.32;;;;;;;5.82;100.00;99695.69;5027563;28;20113;-90
2021/12/27 11:17:52;;;;;;;16.50;11.75;;;;;;;5.86;100.00;99702.53;5027742;28;20091;-89
2021/12/27 11:20:18;;;;;;;15.25;10.82;;;;;;;5.82;100.00;99699.16;5027274;28;20026;-89
2021/12/27 11:22:44;;;;;;;19.85;12.25;;;;;;;5.69;100.00;99687.50;5025963;28;20033;-91